createdAt,value
2023-02-24T00:02:15.330Z,263.08
2023-02-24T00:05:24.003Z,256.49
2023-02-24T00:08:30.709Z,245.46
2023-02-24T00:11:36.893Z,227.30
2023-02-24T00:14:47.883Z,220.95
2023-02-24T00:17:53.732Z,227.87
2023-02-24T00:21:08.558Z,223.15
2023-02-24T00:24:16.028Z,207.97
2023-02-24T00:27:22.751Z,212.41
2023-02-24T00:30:29.963Z,223.65
2023-02-24T00:33:39.619Z,216.54
2023-02-24T00:36:48.071Z,243.00
2023-02-24T00:39:58.770Z,242.93
2023-02-24T00:43:04.613Z,226.50
2023-02-24T00:46:12.676Z,215.14
2023-02-24T00:49:24.697Z,208.25
2023-02-24T00:52:34.648Z,216.88
2023-02-24T00:55:40.553Z,229.30
2023-02-24T00:58:48.228Z,251.50
2023-02-24T01:01:56.024Z,244.33
2023-02-24T01:05:05.277Z,236.69
2023-02-24T01:08:17.713Z,239.70
2023-02-24T01:11:41.974Z,235.26
2023-02-24T01:14:50.642Z,231.43
2023-02-24T01:17:57.422Z,232.97
2023-02-24T01:21:05.174Z,226.98
2023-02-24T01:24:18.507Z,214.81
2023-02-24T01:27:24.748Z,214.36
2023-02-24T01:30:31.699Z,204.30
2023-02-24T01:33:39.530Z,210.63
2023-02-24T01:36:47.665Z,213.37
2023-02-24T01:39:56.180Z,223.12
2023-02-24T01:43:08.881Z,226.01
2023-02-24T01:46:15.150Z,223.05
2023-02-24T01:49:33.273Z,216.67
2023-02-24T01:52:42.209Z,216.06
2023-02-24T01:55:56.823Z,216.52
2023-02-24T01:59:14.395Z,230.80
2023-02-24T02:02:27.225Z,215.42
2023-02-24T02:05:33.456Z,210.66
2023-02-24T02:08:45.302Z,207.99
2023-02-24T02:11:53.841Z,204.78
2023-02-24T02:15:13.319Z,205.05
2023-02-24T02:18:41.530Z,206.79
2023-02-24T02:22:34.012Z,208.88
2023-02-24T02:26:11.785Z,206.16
2023-02-24T02:29:52.061Z,206.52
2023-02-24T02:34:05.646Z,203.12
2023-02-24T02:37:25.386Z,193.95
2023-02-24T02:40:45.992Z,181.92
2023-02-24T02:44:07.942Z,175.48
2023-02-24T02:47:26.376Z,169.22
2023-02-24T02:50:46.201Z,173.03
2023-02-24T02:54:05.266Z,172.13
2023-02-24T02:57:24.033Z,171.23
2023-02-24T03:00:51.594Z,172.93
2023-02-24T03:04:08.623Z,179.27
2023-02-24T03:07:23.250Z,173.11
2023-02-24T03:10:34.552Z,178.50
2023-02-24T03:13:49.845Z,183.91
2023-02-24T03:16:59.792Z,190.23
2023-02-24T03:20:26.432Z,188.59
2023-02-24T03:23:37.807Z,202.45
2023-02-24T03:26:52.840Z,214.66
2023-02-24T03:30:10.020Z,207.75
2023-02-24T03:33:29.965Z,218.01
2023-02-24T03:36:36.992Z,227.53
2023-02-24T03:39:51.518Z,224.59
2023-02-24T03:43:09.201Z,213.94
2023-02-24T03:46:18.844Z,200.70
2023-02-24T03:49:26.890Z,199.91
2023-02-24T03:52:49.344Z,199.54
2023-02-24T03:56:13.421Z,197.31
2023-02-24T03:59:44.032Z,203.46
2023-02-24T04:03:01.236Z,200.26
2023-02-24T04:06:23.843Z,208.25
2023-02-24T04:09:42.607Z,212.44
2023-02-24T04:13:11.564Z,213.07
2023-02-24T04:16:29.143Z,210.83
2023-02-24T04:19:43.075Z,224.51
2023-02-24T04:22:58.206Z,211.31
2023-02-24T04:26:06.646Z,213.19
2023-02-24T04:29:23.246Z,220.65
2023-02-24T04:32:34.533Z,231.19
2023-02-24T04:35:41.549Z,242.65
2023-02-24T04:38:48.944Z,254.24
2023-02-24T04:42:08.317Z,289.59
2023-02-24T04:45:30.330Z,287.68
2023-02-24T04:48:36.308Z,299.54
2023-02-24T04:51:45.121Z,306.44
2023-02-24T04:54:51.058Z,313.65
2023-02-24T04:57:58.259Z,287.01
2023-02-24T05:01:13.205Z,294.03
2023-02-24T05:04:20.938Z,298.54
2023-02-24T05:07:29.281Z,296.20
2023-02-24T05:10:42.480Z,296.84
2023-02-24T05:13:49.028Z,297.65
2023-02-24T05:17:00.625Z,282.70
2023-02-24T05:20:20.692Z,275.02
2023-02-24T05:23:29.331Z,260.74
2023-02-24T05:26:37.652Z,256.87
2023-02-24T05:29:44.618Z,250.36
2023-02-24T05:32:54.636Z,246.63
2023-02-24T05:36:08.776Z,242.61
2023-02-24T05:39:19.374Z,237.30
2023-02-24T05:42:26.081Z,237.97
2023-02-24T05:45:31.929Z,236.34
2023-02-24T05:48:41.418Z,241.74
2023-02-24T05:51:57.866Z,236.29
2023-02-24T05:55:06.896Z,232.12
2023-02-24T05:58:12.843Z,234.39
2023-02-24T06:01:31.346Z,225.53
2023-02-24T06:04:54.290Z,225.96
2023-02-24T06:08:11.868Z,232.28
2023-02-24T06:11:19.503Z,233.15
2023-02-24T06:14:26.319Z,243.40
2023-02-24T06:17:32.964Z,241.15
2023-02-24T06:20:42.300Z,231.51
2023-02-24T06:23:48.526Z,239.36
2023-02-24T06:27:08.341Z,249.62
2023-02-24T06:30:18.733Z,289.21
2023-02-24T06:33:27.178Z,286.32
2023-02-24T06:36:35.788Z,283.95
2023-02-24T06:39:43.229Z,317.48
2023-02-24T06:42:54.204Z,316.03
2023-02-24T06:46:01.612Z,284.80
2023-02-24T06:49:12.884Z,291.46
2023-02-24T06:52:22.197Z,306.90
2023-02-24T06:55:30.801Z,301.83
2023-02-24T06:58:39.335Z,309.23
2023-02-24T07:01:49.384Z,338.41
2023-02-24T07:04:58.780Z,335.79
2023-02-24T07:08:08.725Z,345.07
2023-02-24T07:11:17.845Z,356.72
2023-02-24T07:14:27.327Z,349.93
2023-02-24T07:17:34.095Z,331.26
2023-02-24T07:20:52.355Z,323.81
2023-02-24T07:24:05.043Z,323.08
2023-02-24T07:27:25.813Z,305.58
2023-02-24T07:30:33.591Z,303.36
2023-02-24T07:33:40.455Z,313.58
2023-02-24T07:36:52.039Z,302.63
2023-02-24T07:40:00.551Z,313.08
2023-02-24T07:43:07.747Z,311.47
2023-02-24T07:46:19.445Z,324.79
2023-02-24T07:49:30.407Z,317.02
2023-02-24T07:52:37.418Z,303.04
2023-02-24T07:55:53.970Z,290.78
2023-02-24T07:59:08.145Z,287.35
2023-02-24T08:02:14.854Z,282.47
2023-02-24T08:05:21.811Z,300.41
2023-02-24T08:08:33.604Z,322.31
2023-02-24T08:11:52.598Z,300.32
2023-02-24T08:15:00.410Z,322.78
2023-02-24T08:18:06.930Z,324.96
2023-02-24T08:21:14.401Z,317.69
2023-02-24T08:24:25.317Z,325.06
2023-02-24T08:27:39.183Z,321.62
2023-02-24T08:30:47.963Z,312.70
2023-02-24T08:33:56.538Z,296.36
2023-02-24T08:37:02.340Z,313.40
2023-02-24T08:40:34.302Z,313.57
2023-02-24T08:43:46.608Z,314.09
2023-02-24T08:46:53.870Z,312.86
2023-02-24T08:50:05.146Z,308.28
2023-02-24T08:53:19.370Z,319.10
2023-02-24T08:56:29.230Z,316.33
2023-02-24T08:59:50.217Z,338.94
2023-02-24T09:02:56.420Z,333.56
2023-02-24T09:06:08.968Z,326.63
2023-02-24T09:09:22.824Z,340.95
2023-02-24T09:12:34.785Z,342.90
2023-02-24T09:15:44.742Z,348.80
2023-02-24T09:19:10.905Z,369.00
2023-02-24T09:22:32.216Z,373.28
2023-02-24T09:25:49.840Z,332.59
2023-02-24T09:28:58.565Z,334.87
2023-02-24T09:32:13.816Z,368.49
2023-02-24T09:35:26.229Z,372.34
2023-02-24T09:38:46.342Z,388.24
2023-02-24T09:42:19.535Z,359.54
2023-02-24T09:45:33.753Z,359.66
2023-02-24T09:49:12.402Z,342.07
2023-02-24T09:52:38.279Z,340.03
2023-02-24T09:56:08.916Z,366.15
2023-02-24T09:59:33.415Z,369.91
2023-02-24T10:03:00.442Z,356.88
2023-02-24T10:06:23.466Z,339.30
2023-02-24T10:09:38.852Z,326.46
2023-02-24T10:12:45.933Z,318.46
2023-02-24T10:16:12.284Z,316.67
2023-02-24T10:19:34.379Z,295.33
2023-02-24T10:22:56.056Z,303.22
2023-02-24T10:26:08.981Z,302.62
2023-02-24T10:29:36.242Z,291.25
2023-02-24T10:32:59.111Z,286.04
2023-02-24T10:36:13.262Z,273.34
2023-02-24T10:39:26.385Z,279.81
2023-02-24T10:42:37.801Z,288.01
2023-02-24T10:45:46.422Z,285.84
2023-02-24T10:49:03.480Z,274.05
2023-02-24T10:52:11.373Z,277.41
2023-02-24T10:55:52.775Z,254.56
2023-02-24T10:59:36.732Z,247.08
2023-02-24T11:03:07.414Z,252.49
2023-02-24T11:06:42.537Z,261.67
2023-02-24T11:09:52.863Z,265.40
2023-02-24T11:13:16.971Z,250.20
2023-02-24T11:16:36.286Z,250.65
2023-02-24T11:19:48.351Z,258.95
2023-02-24T11:22:58.025Z,266.28
2023-02-24T11:26:12.961Z,273.48
2023-02-24T11:29:54.853Z,274.60
2023-02-24T11:33:26.459Z,261.13
2023-02-24T11:36:49.729Z,289.45
2023-02-24T11:40:04.089Z,273.35
2023-02-24T11:43:21.599Z,259.12
2023-02-24T11:46:45.274Z,248.20
2023-02-24T11:50:06.068Z,284.59
2023-02-24T11:53:41.362Z,279.28
2023-02-24T11:56:56.206Z,259.41
2023-02-24T12:00:20.368Z,269.87
2023-02-24T12:03:43.104Z,299.78
2023-02-24T12:07:02.737Z,293.28
2023-02-24T12:10:22.779Z,275.10
2023-02-24T12:13:41.803Z,307.42
2023-02-24T12:16:59.615Z,308.04
2023-02-24T12:20:23.460Z,287.04
2023-02-24T12:23:37.696Z,291.51
2023-02-24T12:27:01.516Z,318.04
2023-02-24T12:30:57.877Z,357.56
2023-02-24T12:34:15.774Z,328.99
2023-02-24T12:37:48.582Z,338.16
2023-02-24T12:41:15.470Z,378.01
2023-02-24T12:44:39.978Z,388.58
2023-02-24T12:48:07.603Z,329.08
2023-02-24T12:51:29.955Z,305.64
2023-02-24T12:54:50.469Z,305.12
2023-02-24T12:58:14.158Z,305.48
2023-02-24T13:01:33.448Z,314.59
2023-02-24T13:04:56.413Z,329.31
2023-02-24T13:08:27.196Z,315.34
2023-02-24T13:11:52.948Z,314.71
2023-02-24T13:14:59.848Z,326.45
2023-02-24T13:18:06.696Z,333.98
2023-02-24T13:21:25.254Z,318.21
2023-02-24T13:24:32.784Z,333.98
2023-02-24T13:27:45.976Z,334.72
2023-02-24T13:31:04.171Z,397.18
2023-02-24T13:34:17.981Z,317.69
2023-02-24T13:37:36.411Z,333.32
2023-02-24T13:40:42.365Z,319.98
2023-02-24T13:44:02.571Z,321.89
2023-02-24T13:47:57.451Z,321.48
2023-02-24T13:51:53.529Z,324.96
2023-02-24T13:55:33.884Z,333.16
2023-02-24T13:59:12.792Z,320.58
2023-02-24T14:02:23.379Z,309.18
2023-02-24T14:05:37.414Z,312.06
2023-02-24T14:08:54.353Z,318.62
2023-02-24T14:12:07.893Z,319.42
2023-02-24T14:15:31.558Z,304.91
2023-02-24T14:18:39.620Z,352.56
2023-02-24T14:21:55.272Z,355.46
2023-02-24T14:25:05.730Z,330.81
2023-02-24T14:28:27.449Z,336.23
2023-02-24T14:31:37.130Z,364.72
2023-02-24T14:34:43.659Z,349.96
2023-02-24T14:37:50.621Z,365.80
2023-02-24T14:40:56.508Z,362.78
2023-02-24T14:44:19.526Z,337.32
2023-02-24T14:47:33.613Z,325.38
2023-02-24T14:50:41.001Z,310.86
2023-02-24T14:53:54.844Z,351.62
2023-02-24T14:57:04.525Z,311.80
2023-02-24T15:00:24.381Z,281.69
2023-02-24T15:03:40.790Z,236.63
2023-02-24T15:06:47.803Z,210.50
2023-02-24T15:09:56.870Z,256.23
2023-02-24T15:13:13.854Z,251.52
2023-02-24T15:16:28.955Z,268.00
2023-02-24T15:19:45.997Z,280.77
2023-02-24T15:22:54.043Z,231.68
2023-02-24T15:26:00.132Z,199.74
2023-02-24T15:29:18.338Z,194.67
2023-02-24T15:32:30.789Z,191.06
2023-02-24T15:35:54.063Z,204.32
2023-02-24T15:39:05.874Z,219.47
2023-02-24T15:42:28.673Z,230.02
2023-02-24T15:45:38.794Z,237.56
2023-02-24T15:48:47.883Z,238.85
2023-02-24T15:52:04.533Z,266.20
2023-02-24T15:55:17.982Z,221.44
2023-02-24T15:58:26.484Z,221.80
2023-02-24T16:01:34.130Z,240.55
2023-02-24T16:04:48.937Z,222.16
2023-02-24T16:07:58.565Z,225.39
2023-02-24T16:11:04.550Z,239.33
2023-02-24T16:14:19.862Z,228.81
2023-02-24T16:17:36.040Z,242.83
2023-02-24T16:20:42.822Z,254.48
2023-02-24T16:23:51.513Z,253.98
2023-02-24T16:26:58.365Z,265.25
2023-02-24T16:30:04.794Z,300.79
2023-02-24T16:33:17.676Z,310.94
2023-02-24T16:36:25.622Z,318.50
2023-02-24T16:39:35.168Z,321.71
2023-02-24T16:42:41.068Z,332.67
2023-02-24T16:45:49.191Z,322.48
2023-02-24T16:48:56.838Z,320.19
2023-02-24T16:52:03.696Z,289.93
2023-02-24T16:55:16.031Z,321.17
2023-02-24T16:58:23.632Z,304.88
2023-02-24T17:01:29.781Z,307.38
2023-02-24T17:04:36.599Z,277.73
2023-02-24T17:07:42.801Z,300.82
2023-02-24T17:10:54.473Z,265.98
2023-02-24T17:14:00.426Z,164.10
2023-02-24T17:17:07.532Z,148.75
2023-02-24T17:20:17.239Z,107.85
2023-02-24T17:23:24.776Z,74.06
2023-02-24T17:26:33.674Z,94.54
2023-02-24T17:29:40.541Z,99.14
2023-02-24T17:32:46.761Z,120.56
2023-02-24T17:35:53.589Z,160.59
2023-02-24T17:38:59.606Z,168.05
2023-02-24T17:42:15.686Z,166.26
2023-02-24T17:45:22.190Z,169.92
2023-02-24T17:48:28.988Z,355.03
2023-02-24T17:51:38.738Z,459.95
2023-02-24T17:54:45.598Z,506.30
2023-02-24T17:57:57.029Z,507.38
2023-02-24T18:01:24.685Z,472.44
2023-02-24T18:04:30.613Z,490.24
2023-02-24T18:07:37.734Z,443.28
2023-02-24T18:10:51.894Z,423.57
2023-02-24T18:14:05.114Z,404.85
2023-02-24T18:17:11.106Z,405.19
2023-02-24T18:20:37.935Z,404.29
2023-02-24T18:23:48.884Z,384.47
2023-02-24T18:26:55.769Z,399.14
2023-02-24T18:30:10.354Z,375.97
2023-02-24T18:33:28.338Z,306.44
2023-02-24T18:36:34.331Z,302.10
2023-02-24T18:39:41.264Z,307.04
2023-02-24T18:42:47.226Z,257.38
2023-02-24T18:46:00.178Z,231.66
2023-02-24T18:49:09.071Z,227.01
2023-02-24T18:52:15.829Z,229.97
2023-02-24T18:55:22.612Z,223.77
2023-02-24T18:58:29.368Z,221.36
2023-02-24T19:01:41.854Z,234.79
2023-02-24T19:04:53.524Z,219.45
2023-02-24T19:08:00.052Z,223.20
2023-02-24T19:11:12.606Z,235.00
2023-02-24T19:14:20.180Z,228.04
2023-02-24T19:17:29.678Z,224.24
2023-02-24T19:20:35.999Z,223.48
2023-02-24T19:23:42.831Z,228.58
2023-02-24T19:26:56.626Z,221.84
2023-02-24T19:30:08.796Z,221.43
2023-02-24T19:33:17.768Z,226.01
2023-02-24T19:36:26.650Z,222.34
2023-02-24T19:39:33.173Z,230.48
2023-02-24T19:42:40.758Z,234.12
2023-02-24T19:45:47.401Z,229.77
2023-02-24T19:48:59.193Z,228.62
2023-02-24T19:52:05.281Z,231.10
2023-02-24T19:55:14.814Z,238.65
2023-02-24T19:58:20.989Z,232.03
2023-02-24T20:01:30.565Z,224.28
2023-02-24T20:04:39.214Z,241.99
2023-02-24T20:07:46.397Z,241.38
2023-02-24T20:11:02.798Z,250.66
2023-02-24T20:14:11.518Z,278.79
2023-02-24T20:17:17.823Z,317.71
2023-02-24T20:20:27.496Z,328.05
2023-02-24T20:23:34.809Z,320.84
2023-02-24T20:26:46.515Z,328.06
2023-02-24T20:29:53.746Z,311.59
2023-02-24T20:33:00.713Z,294.60
2023-02-24T20:36:21.188Z,311.89
2023-02-24T20:39:28.133Z,310.70
2023-02-24T20:42:34.148Z,328.60
2023-02-24T20:45:49.684Z,321.10
2023-02-24T20:49:00.682Z,314.49
2023-02-24T20:52:13.073Z,308.05
2023-02-24T20:55:19.303Z,303.21
2023-02-24T20:58:30.697Z,291.99
2023-02-24T21:01:45.081Z,298.06
2023-02-24T21:04:53.278Z,252.71
2023-02-24T21:08:08.457Z,220.27
2023-02-24T21:11:18.534Z,243.06
2023-02-24T21:14:25.047Z,269.99
2023-02-24T21:17:34.407Z,258.88
2023-02-24T21:20:41.207Z,263.22
2023-02-24T21:23:51.644Z,257.54
2023-02-24T21:26:57.540Z,194.32
2023-02-24T21:30:04.200Z,209.25
2023-02-24T21:33:14.420Z,227.25
2023-02-24T21:36:24.551Z,218.31
2023-02-24T21:39:33.304Z,187.86
2023-02-24T21:42:42.078Z,184.12
2023-02-24T21:45:50.715Z,271.84
2023-02-24T21:48:58.166Z,263.45
2023-02-24T21:52:11.667Z,254.96
2023-02-24T21:55:23.641Z,258.78
2023-02-24T21:58:29.458Z,261.26
2023-02-24T22:01:39.549Z,247.37
2023-02-24T22:04:47.023Z,231.07
2023-02-24T22:07:58.435Z,198.94
2023-02-24T22:11:07.088Z,189.61
2023-02-24T22:14:17.448Z,189.25
2023-02-24T22:17:23.382Z,186.49
2023-02-24T22:20:32.368Z,182.75
2023-02-24T22:23:39.400Z,190.03
2023-02-24T22:26:49.956Z,202.61
2023-02-24T22:29:56.267Z,223.24
2023-02-24T22:33:03.117Z,215.67
2023-02-24T22:36:12.592Z,224.56
2023-02-24T22:39:19.346Z,217.10
2023-02-24T22:42:28.818Z,241.89
2023-02-24T22:45:35.614Z,224.16
2023-02-24T22:48:44.907Z,243.35
2023-02-24T22:51:53.453Z,241.12
2023-02-24T22:54:59.416Z,228.39
2023-02-24T22:58:10.564Z,230.53
2023-02-24T23:01:20.578Z,228.27
2023-02-24T23:04:29.378Z,221.77
2023-02-24T23:07:35.352Z,205.27
2023-02-24T23:10:42.119Z,198.64
2023-02-24T23:13:54.813Z,179.86
2023-02-24T23:17:08.672Z,196.91
2023-02-24T23:20:23.696Z,207.13
2023-02-24T23:23:34.020Z,198.33
2023-02-24T23:26:47.507Z,187.93
2023-02-24T23:29:56.823Z,182.25
2023-02-24T23:33:06.340Z,179.30
2023-02-24T23:36:18.888Z,198.02
2023-02-24T23:39:25.130Z,233.36
2023-02-24T23:42:32.211Z,215.58
2023-02-24T23:45:44.584Z,221.47
2023-02-24T23:48:55.438Z,216.90
2023-02-24T23:52:02.025Z,218.16
2023-02-24T23:55:09.765Z,221.14
2023-02-24T23:58:16.865Z,223.36
